createdAt,value
2024-05-09T00:00:15.468Z,37.15
2024-05-09T00:01:09.709Z,37.14
2024-05-09T00:02:08.720Z,37.15
2024-05-09T00:03:10.162Z,37.13
2024-05-09T00:04:08.800Z,37.14
2024-05-09T00:05:08.814Z,37.14
2024-05-09T00:06:08.718Z,37.12
2024-05-09T00:07:08.859Z,37.14
2024-05-09T00:08:08.728Z,37.14
2024-05-09T00:09:08.685Z,37.14
2024-05-09T00:10:14.682Z,37.12
2024-05-09T00:11:09.803Z,37.15
2024-05-09T00:12:08.938Z,37.11
2024-05-09T00:13:09.120Z,37.14
2024-05-09T00:14:08.735Z,37.10
2024-05-09T00:15:08.671Z,37.12
2024-05-09T00:16:08.686Z,37.10
2024-05-09T00:17:08.742Z,37.12
2024-05-09T00:18:09.006Z,37.14
2024-05-09T00:19:08.794Z,37.17
2024-05-09T00:20:17.414Z,37.14
2024-05-09T00:21:09.907Z,37.08
2024-05-09T00:22:08.706Z,37.10
2024-05-09T00:23:09.251Z,37.09
2024-05-09T00:24:08.721Z,37.11
2024-05-09T00:25:08.779Z,37.07
2024-05-09T00:26:08.768Z,37.08
2024-05-09T00:27:11.276Z,37.07
2024-05-09T00:28:08.724Z,37.11
2024-05-09T00:29:08.839Z,37.07
2024-05-09T00:30:14.265Z,37.10
2024-05-09T00:31:09.757Z,37.08
2024-05-09T00:32:08.872Z,37.06
2024-05-09T00:33:10.374Z,37.06
2024-05-09T00:34:09.260Z,37.11
2024-05-09T00:35:09.147Z,37.02
2024-05-09T00:36:09.094Z,37.06
2024-05-09T00:37:09.096Z,37.10
2024-05-09T00:38:09.170Z,37.05
2024-05-09T00:39:09.134Z,37.06
2024-05-09T00:40:18.253Z,37.06
2024-05-09T00:41:10.226Z,37.02
2024-05-09T00:42:09.252Z,37.04
2024-05-09T00:43:09.205Z,37.07
2024-05-09T00:44:09.378Z,37.08
2024-05-09T00:45:09.216Z,37.07
2024-05-09T00:46:09.207Z,37.06
2024-05-09T00:47:09.472Z,37.03
2024-05-09T00:48:10.495Z,37.06
2024-05-09T00:49:09.387Z,37.06
2024-05-09T00:50:15.465Z,37.02
2024-05-09T00:51:10.378Z,37.02
2024-05-09T00:52:09.237Z,37.05
2024-05-09T00:53:09.263Z,37.06
2024-05-09T00:54:09.227Z,37.06
2024-05-09T00:55:09.221Z,37.06
2024-05-09T00:56:09.316Z,37.01
2024-05-09T00:57:09.224Z,37.02
2024-05-09T00:58:09.302Z,37.01
2024-05-09T00:59:09.327Z,37.05
2024-05-09T01:00:22.167Z,37.02
2024-05-09T01:01:10.249Z,36.99
2024-05-09T01:02:09.375Z,36.99
2024-05-09T01:03:11.032Z,37.00
2024-05-09T01:04:09.491Z,37.04
2024-05-09T01:05:09.324Z,36.98
2024-05-09T01:06:09.279Z,37.02
2024-05-09T01:07:09.248Z,36.99
2024-05-09T01:08:09.846Z,37.02
2024-05-09T01:09:09.256Z,36.99
2024-05-09T01:10:14.312Z,37.04
2024-05-09T01:11:10.368Z,37.02
2024-05-09T01:12:09.548Z,36.95
2024-05-09T01:13:09.274Z,37.01
2024-05-09T01:14:09.397Z,37.04
2024-05-09T01:15:09.268Z,36.96
2024-05-09T01:16:09.284Z,37.00
2024-05-09T01:17:09.337Z,36.99
2024-05-09T01:18:10.001Z,36.99
2024-05-09T01:19:09.379Z,36.96
2024-05-09T01:20:12.898Z,37.03
2024-05-09T01:21:10.434Z,36.98
2024-05-09T01:22:09.284Z,36.99
2024-05-09T01:23:10.043Z,37.01
2024-05-09T01:24:09.265Z,37.00
2024-05-09T01:25:09.277Z,36.99
2024-05-09T01:26:09.321Z,36.96
2024-05-09T01:27:09.296Z,36.96
2024-05-09T01:28:09.284Z,36.92
2024-05-09T01:29:09.383Z,36.94
2024-05-09T01:30:14.598Z,36.94
2024-05-09T01:31:10.302Z,36.95
2024-05-09T01:32:09.391Z,36.95
2024-05-09T01:33:11.215Z,36.99
2024-05-09T01:34:09.475Z,36.92
2024-05-09T01:35:09.394Z,36.92
2024-05-09T01:36:09.291Z,36.95
2024-05-09T01:37:09.336Z,36.95
2024-05-09T01:38:09.360Z,36.91
2024-05-09T01:39:09.308Z,36.98
2024-05-09T01:40:14.838Z,36.96
2024-05-09T01:41:10.313Z,36.91
2024-05-09T01:42:09.321Z,36.92
2024-05-09T01:43:10.576Z,36.95
2024-05-09T01:44:09.348Z,36.95
2024-05-09T01:45:09.331Z,36.91
2024-05-09T01:46:09.313Z,36.95
2024-05-09T01:47:09.566Z,36.95
2024-05-09T01:48:09.783Z,36.92
2024-05-09T01:49:09.451Z,36.92
2024-05-09T01:50:11.118Z,36.89
2024-05-09T01:51:09.669Z,36.90
2024-05-09T01:52:09.516Z,36.91
2024-05-09T01:53:10.066Z,36.93
2024-05-09T01:54:09.586Z,36.88
2024-05-09T01:55:09.657Z,36.87
2024-05-09T01:56:09.797Z,36.91
2024-05-09T01:57:09.734Z,36.91
2024-05-09T01:58:10.123Z,36.91
2024-05-09T01:59:09.922Z,36.91
2024-05-09T02:00:10.504Z,36.93
2024-05-09T02:01:09.962Z,36.87
2024-05-09T02:02:10.163Z,36.85
2024-05-09T02:03:10.932Z,36.88
2024-05-09T02:04:10.188Z,36.88
2024-05-09T02:05:10.142Z,36.93
2024-05-09T02:06:10.168Z,36.88
2024-05-09T02:07:10.012Z,36.90
2024-05-09T02:08:10.062Z,36.86
2024-05-09T02:09:10.016Z,36.90
2024-05-09T02:10:16.416Z,36.83
2024-05-09T02:11:11.219Z,36.86
2024-05-09T02:12:10.119Z,36.88
2024-05-09T02:13:10.100Z,36.88
2024-05-09T02:14:10.082Z,36.84
2024-05-09T02:15:09.995Z,36.92
2024-05-09T02:16:10.052Z,36.87
2024-05-09T02:17:10.127Z,36.87
2024-05-09T02:18:10.548Z,36.91
2024-05-09T02:19:10.162Z,36.88
2024-05-09T02:20:13.279Z,36.87
2024-05-09T02:21:11.126Z,36.84
2024-05-09T02:22:10.087Z,36.86
2024-05-09T02:23:10.194Z,36.87
2024-05-09T02:24:10.024Z,36.88
2024-05-09T02:25:10.078Z,36.88
2024-05-09T02:26:10.113Z,36.84
2024-05-09T02:27:10.072Z,36.87
2024-05-09T02:28:10.079Z,36.88
2024-05-09T02:29:10.072Z,36.84
2024-05-09T02:30:18.692Z,36.85
2024-05-09T02:31:11.055Z,36.86
2024-05-09T02:32:10.163Z,36.83
2024-05-09T02:33:11.982Z,36.86
2024-05-09T02:34:10.135Z,36.84
2024-05-09T02:35:10.192Z,36.87
2024-05-09T02:36:10.047Z,36.80
2024-05-09T02:37:10.061Z,36.81
2024-05-09T02:38:10.458Z,36.83
2024-05-09T02:39:10.048Z,36.81
2024-05-09T02:40:14.597Z,36.88
2024-05-09T02:41:11.196Z,36.83
2024-05-09T02:42:10.077Z,36.84
2024-05-09T02:43:11.304Z,36.84
2024-05-09T02:44:10.117Z,36.83
2024-05-09T02:45:10.061Z,36.77
2024-05-09T02:46:10.115Z,36.81
2024-05-09T02:47:10.161Z,36.83
2024-05-09T02:48:10.289Z,36.84
2024-05-09T02:49:10.172Z,36.88
2024-05-09T02:50:13.303Z,36.79
2024-05-09T02:51:11.361Z,36.83
2024-05-09T02:52:10.122Z,36.81
2024-05-09T02:53:11.040Z,36.81
2024-05-09T02:54:10.142Z,36.80
2024-05-09T02:55:10.111Z,36.80
2024-05-09T02:56:10.188Z,36.83
2024-05-09T02:57:10.166Z,36.81
2024-05-09T02:58:10.336Z,36.80
2024-05-09T02:59:10.170Z,36.76
2024-05-09T03:00:18.308Z,36.80
2024-05-09T03:01:11.187Z,36.80
2024-05-09T03:02:10.332Z,36.83
2024-05-09T03:03:12.410Z,36.80
2024-05-09T03:04:10.224Z,36.76
2024-05-09T03:05:10.168Z,36.80
2024-05-09T03:06:10.164Z,36.81
2024-05-09T03:07:10.167Z,36.83
2024-05-09T03:08:10.200Z,36.80
2024-05-09T03:09:10.164Z,36.79
2024-05-09T03:10:18.271Z,36.80
2024-05-09T03:11:11.255Z,36.81
2024-05-09T03:12:10.285Z,36.79
2024-05-09T03:13:10.147Z,36.76
2024-05-09T03:14:10.242Z,36.76
2024-05-09T03:15:10.140Z,36.76
2024-05-09T03:16:10.143Z,36.80
2024-05-09T03:17:10.200Z,36.80
2024-05-09T03:18:10.333Z,36.79
2024-05-09T03:19:10.320Z,36.81
2024-05-09T03:20:17.513Z,36.76
2024-05-09T03:21:11.258Z,36.75
2024-05-09T03:22:10.170Z,36.80
2024-05-09T03:23:10.518Z,36.77
2024-05-09T03:24:10.189Z,36.76
2024-05-09T03:25:10.202Z,36.77
2024-05-09T03:26:10.222Z,36.76
2024-05-09T03:27:10.179Z,36.74
2024-05-09T03:28:10.225Z,36.76
2024-05-09T03:29:10.241Z,36.79
2024-05-09T03:30:10.213Z,36.81
2024-05-09T03:31:10.220Z,36.76
2024-05-09T03:32:10.236Z,36.73
2024-05-09T03:33:10.508Z,36.73
2024-05-09T03:34:10.331Z,36.74
2024-05-09T03:35:10.338Z,36.76
2024-05-09T03:36:11.414Z,36.75
2024-05-09T03:37:10.409Z,36.73
2024-05-09T03:38:10.530Z,36.77
2024-05-09T03:39:10.502Z,36.77
2024-05-09T03:40:17.559Z,36.74
2024-05-09T03:41:11.554Z,36.74
2024-05-09T03:42:10.542Z,36.74
2024-05-09T03:43:10.540Z,36.76
2024-05-09T03:44:10.576Z,36.73
2024-05-09T03:45:10.536Z,36.70
2024-05-09T03:46:10.548Z,36.74
2024-05-09T03:47:10.593Z,36.67
2024-05-09T03:48:10.773Z,36.68
2024-05-09T03:49:10.732Z,36.76
2024-05-09T03:50:18.156Z,36.71
2024-05-09T03:51:11.545Z,36.70
2024-05-09T03:52:10.532Z,36.71
2024-05-09T03:53:10.739Z,36.74
2024-05-09T03:54:10.541Z,36.74
2024-05-09T03:55:10.546Z,36.68
2024-05-09T03:56:10.651Z,36.72
2024-05-09T03:57:10.535Z,36.74
2024-05-09T03:58:10.536Z,36.69
2024-05-09T03:59:10.657Z,36.70
2024-05-09T04:00:17.815Z,36.72
2024-05-09T04:01:11.602Z,36.69
2024-05-09T04:02:10.661Z,36.73
2024-05-09T04:03:12.507Z,36.70
2024-05-09T04:04:10.600Z,36.70
2024-05-09T04:05:10.594Z,36.68
2024-05-09T04:06:10.549Z,36.68
2024-05-09T04:07:10.595Z,36.69
2024-05-09T04:08:11.237Z,36.69
2024-05-09T04:09:10.587Z,36.69
2024-05-09T04:10:20.592Z,36.68
2024-05-09T04:11:11.709Z,36.69
2024-05-09T04:12:10.775Z,36.67
2024-05-09T04:13:10.579Z,36.68
2024-05-09T04:14:10.605Z,36.65
2024-05-09T04:15:13.234Z,36.68
2024-05-09T04:16:11.491Z,36.64
2024-05-09T04:17:10.651Z,36.61
2024-05-09T04:18:10.795Z,36.70
2024-05-09T04:19:10.633Z,36.63
2024-05-09T04:20:18.226Z,36.65
2024-05-09T04:21:11.661Z,36.68
2024-05-09T04:22:10.655Z,36.67
2024-05-09T04:23:10.753Z,36.64
2024-05-09T04:24:10.618Z,36.61
2024-05-09T04:25:10.647Z,36.65
2024-05-09T04:26:10.664Z,36.64
2024-05-09T04:27:10.620Z,36.64
2024-05-09T04:28:10.625Z,36.66
2024-05-09T04:29:10.656Z,36.66
2024-05-09T04:30:18.539Z,36.67
2024-05-09T04:31:11.650Z,36.64
2024-05-09T04:32:10.754Z,36.66
2024-05-09T04:33:12.706Z,36.61
2024-05-09T04:34:10.757Z,36.64
2024-05-09T04:35:10.650Z,36.65
2024-05-09T04:36:10.635Z,36.66
2024-05-09T04:37:10.659Z,36.65
2024-05-09T04:38:18.273Z,36.69
2024-05-09T04:39:18.165Z,36.67
2024-05-09T04:40:27.665Z,36.65
2024-05-09T04:41:19.199Z,36.67
2024-05-09T04:42:18.207Z,36.65
2024-05-09T04:43:18.193Z,36.62
2024-05-09T04:44:18.195Z,36.64
2024-05-09T04:45:18.184Z,36.62
2024-05-09T04:46:18.183Z,36.65
2024-05-09T04:47:18.351Z,36.62
2024-05-09T04:48:18.370Z,36.65
2024-05-09T04:49:18.428Z,36.68
2024-05-09T04:50:29.008Z,36.58
2024-05-09T04:51:19.207Z,36.64
2024-05-09T04:52:18.198Z,36.65
2024-05-09T04:53:18.389Z,36.64
2024-05-09T04:55:18.218Z,36.64
2024-05-09T04:56:18.258Z,36.62
2024-05-09T04:57:18.191Z,36.64
2024-05-09T04:58:18.235Z,36.57
2024-05-09T04:59:18.247Z,36.62
2024-05-09T05:00:28.554Z,36.60
2024-05-09T05:01:19.259Z,36.61
2024-05-09T05:02:18.296Z,36.61
2024-05-09T05:03:18.577Z,36.57
2024-05-09T05:04:18.448Z,36.60
2024-05-09T05:05:18.318Z,36.60
2024-05-09T05:06:18.243Z,36.57
2024-05-09T05:07:18.243Z,36.58
2024-05-09T05:08:19.204Z,36.58
2024-05-09T05:09:18.262Z,36.56
2024-05-09T05:10:25.298Z,36.53
2024-05-09T05:11:19.344Z,36.56
2024-05-09T05:12:18.414Z,36.57
2024-05-09T05:13:19.205Z,36.53
2024-05-09T05:14:18.621Z,36.60
2024-05-09T05:15:18.282Z,36.58
2024-05-09T05:16:18.260Z,36.57
2024-05-09T05:17:18.425Z,36.57
2024-05-09T05:18:18.974Z,36.54
2024-05-09T05:19:18.486Z,36.60
2024-05-09T05:20:27.156Z,36.53
2024-05-09T05:21:19.476Z,36.53
2024-05-09T05:22:18.294Z,36.56
2024-05-09T05:23:18.376Z,36.55
2024-05-09T05:24:18.293Z,36.54
2024-05-09T05:25:18.301Z,36.56
2024-05-09T05:26:18.318Z,36.53
2024-05-09T05:27:18.297Z,36.53
2024-05-09T05:28:18.297Z,36.52
2024-05-09T05:29:20.838Z,36.56
2024-05-09T05:30:25.033Z,36.51
2024-05-09T05:31:19.363Z,36.48
2024-05-09T05:32:18.457Z,36.49
2024-05-09T05:33:18.948Z,36.52
2024-05-09T05:34:18.279Z,36.52
2024-05-09T05:35:18.292Z,36.53
2024-05-09T05:36:18.316Z,36.51
2024-05-09T05:37:18.294Z,36.51
2024-05-09T05:38:18.375Z,36.51
2024-05-09T05:39:18.327Z,36.51
2024-05-09T05:40:27.997Z,36.52
2024-05-09T05:41:19.371Z,36.48
2024-05-09T05:42:18.322Z,36.48
2024-05-09T05:43:18.415Z,36.47
2024-05-09T05:44:18.332Z,36.44
2024-05-09T05:45:18.333Z,36.46
2024-05-09T05:46:18.347Z,36.47
2024-05-09T05:47:18.480Z,36.47
2024-05-09T05:48:18.918Z,36.43
2024-05-09T05:49:18.480Z,36.40
2024-05-09T05:50:27.298Z,36.47
2024-05-09T05:51:19.351Z,36.40
2024-05-09T05:52:18.343Z,36.39
2024-05-09T05:53:18.409Z,36.43
2024-05-09T05:54:18.351Z,36.43
2024-05-09T05:55:18.326Z,36.39
2024-05-09T05:56:18.347Z,36.42
2024-05-09T05:57:18.354Z,36.39
2024-05-09T05:58:18.382Z,36.36
2024-05-09T05:59:18.381Z,36.36
2024-05-09T06:00:29.133Z,36.29
2024-05-09T06:01:19.358Z,36.31
2024-05-09T06:02:18.445Z,36.28
2024-05-09T06:03:18.432Z,36.25
2024-05-09T06:04:18.545Z,36.22
2024-05-09T06:05:18.501Z,36.25
2024-05-09T06:06:18.372Z,36.21
2024-05-09T06:07:18.376Z,36.20
2024-05-09T06:08:18.428Z,36.17
2024-05-09T06:09:18.373Z,36.23
2024-05-09T06:10:25.192Z,36.25
2024-05-09T06:11:19.518Z,36.23
2024-05-09T06:12:18.542Z,36.21
2024-05-09T06:13:18.384Z,36.25
2024-05-09T06:14:18.428Z,36.22
2024-05-09T06:15:18.397Z,36.22
2024-05-09T06:16:18.390Z,36.25
2024-05-09T06:17:18.522Z,36.20
2024-05-09T06:18:18.775Z,36.23
2024-05-09T06:19:18.559Z,36.25
2024-05-09T06:20:23.999Z,36.19
2024-05-09T06:21:19.679Z,36.22
2024-05-09T06:22:18.403Z,36.24
2024-05-09T06:23:18.567Z,36.23
2024-05-09T06:24:18.415Z,36.20
2024-05-09T06:25:18.431Z,36.19
2024-05-09T06:26:18.464Z,36.21
2024-05-09T06:27:18.412Z,36.20
2024-05-09T06:28:18.403Z,36.22
2024-05-09T06:29:18.451Z,36.19
2024-05-09T06:31:18.410Z,36.19
2024-05-09T06:32:18.480Z,36.19
2024-05-09T06:33:18.739Z,36.16
2024-05-09T06:34:18.649Z,36.16
2024-05-09T06:35:18.455Z,36.19
2024-05-09T06:36:18.437Z,36.21
2024-05-09T06:37:18.438Z,36.16
2024-05-09T06:38:18.506Z,36.18
2024-05-09T06:39:18.418Z,36.21
2024-05-09T06:40:25.454Z,36.18
2024-05-09T06:41:19.492Z,36.16
2024-05-09T06:42:18.438Z,36.17
2024-05-09T06:43:19.695Z,36.16
2024-05-09T06:44:18.458Z,36.13
2024-05-09T06:45:18.460Z,36.11
2024-05-09T06:46:18.438Z,36.12
2024-05-09T06:47:18.533Z,36.13
2024-05-09T06:48:19.158Z,36.09
2024-05-09T06:49:18.628Z,36.11
2024-05-09T06:50:23.923Z,36.07
2024-05-09T06:51:19.498Z,36.05
2024-05-09T06:52:18.460Z,36.03
2024-05-09T06:53:18.580Z,35.98
2024-05-09T06:54:18.509Z,35.99
2024-05-09T06:55:18.480Z,35.97
2024-05-09T06:56:18.518Z,35.94
2024-05-09T06:57:18.474Z,35.95
2024-05-09T06:58:18.458Z,35.96
2024-05-09T06:59:18.523Z,35.94
2024-05-09T07:00:26.915Z,35.92
2024-05-09T07:01:19.514Z,35.93
2024-05-09T07:02:18.564Z,36.00
2024-05-09T07:03:19.547Z,35.97
2024-05-09T07:04:18.553Z,35.94
2024-05-09T07:05:18.602Z,35.98
2024-05-09T07:06:18.543Z,35.97
2024-05-09T07:07:18.562Z,35.97
2024-05-09T07:08:18.899Z,35.98
2024-05-09T07:09:18.505Z,35.97
2024-05-09T07:10:25.725Z,35.98
2024-05-09T07:11:19.698Z,36.00
2024-05-09T07:12:18.578Z,35.99
2024-05-09T07:13:18.521Z,36.02
2024-05-09T07:14:18.683Z,35.99
2024-05-09T07:15:18.495Z,35.98
2024-05-09T07:16:18.574Z,35.95
2024-05-09T07:17:18.602Z,35.97
2024-05-09T07:18:19.437Z,35.97
2024-05-09T07:19:18.762Z,36.00
2024-05-09T07:20:23.756Z,35.99
2024-05-09T07:21:19.769Z,35.98
2024-05-09T07:22:18.518Z,35.97
2024-05-09T07:23:18.764Z,35.97
2024-05-09T07:24:18.584Z,35.95
2024-05-09T07:25:18.514Z,35.94
2024-05-09T07:26:18.770Z,35.97
2024-05-09T07:27:18.540Z,35.95
2024-05-09T07:28:18.677Z,35.96
2024-05-09T07:29:18.673Z,35.93
2024-05-09T07:30:23.817Z,35.97
2024-05-09T07:31:19.568Z,35.94
2024-05-09T07:32:18.635Z,35.93
2024-05-09T07:33:19.549Z,35.93
2024-05-09T07:34:18.685Z,35.94
2024-05-09T07:35:18.563Z,35.97
2024-05-09T07:36:18.540Z,35.93
2024-05-09T07:37:18.539Z,35.93
2024-05-09T07:38:18.712Z,35.96
2024-05-09T07:39:18.614Z,35.89
2024-05-09T07:40:28.455Z,35.93
2024-05-09T07:41:19.566Z,35.89
2024-05-09T07:42:18.567Z,35.87
2024-05-09T07:43:18.551Z,35.87
2024-05-09T07:44:18.578Z,35.86
2024-05-09T07:47:14.450Z,35.86
2024-05-09T07:48:29.199Z,35.84
2024-05-09T07:51:31.671Z,35.83
2024-05-09T07:53:38.224Z,35.84
2024-05-09T07:54:19.779Z,35.82
2024-05-09T07:55:18.833Z,35.81
2024-05-09T07:56:20.291Z,35.77
2024-05-09T07:57:18.716Z,35.79
2024-05-09T07:58:18.666Z,35.83
2024-05-09T07:59:18.590Z,35.82
2024-05-09T08:00:23.815Z,35.82
2024-05-09T08:01:20.198Z,35.83
2024-05-09T08:02:18.712Z,35.79
2024-05-09T08:03:18.817Z,35.82
2024-05-09T08:04:18.665Z,35.81
2024-05-09T08:05:18.776Z,35.78
2024-05-09T08:06:18.621Z,35.76
2024-05-09T08:07:18.645Z,35.68
2024-05-09T08:08:18.589Z,35.71
2024-05-09T08:09:21.235Z,35.75
2024-05-09T08:10:22.245Z,35.69
2024-05-09T08:11:19.674Z,35.73
2024-05-09T08:12:18.607Z,35.72
2024-05-09T08:13:18.783Z,35.71
2024-05-09T08:14:18.597Z,35.70
2024-05-09T08:15:18.704Z,35.69
2024-05-09T08:16:18.681Z,35.68
2024-05-09T08:17:18.672Z,35.70
2024-05-09T08:18:18.702Z,35.63
2024-05-09T08:19:18.716Z,35.68
2024-05-09T08:20:26.875Z,35.66
2024-05-09T08:21:19.592Z,35.70
2024-05-09T08:22:18.636Z,35.67
2024-05-09T08:23:18.606Z,35.60
2024-05-09T08:24:18.647Z,35.67
2024-05-09T08:25:18.696Z,35.62
2024-05-09T08:26:18.654Z,35.57
2024-05-09T08:27:18.636Z,35.63
2024-05-09T08:28:18.716Z,35.62
2024-05-09T08:29:18.613Z,35.60
2024-05-09T08:30:24.938Z,35.61
2024-05-09T08:31:19.757Z,35.52
2024-05-09T08:32:18.658Z,35.52
2024-05-09T08:33:18.719Z,35.55
2024-05-09T08:34:18.782Z,35.52
2024-05-09T08:35:18.653Z,35.50
2024-05-09T08:36:18.628Z,35.52
2024-05-09T08:37:22.518Z,35.51
2024-05-09T08:38:19.670Z,35.48
2024-05-09T08:39:18.656Z,35.48
2024-05-09T08:40:27.271Z,35.47
2024-05-09T08:41:19.662Z,35.47
2024-05-09T08:42:18.764Z,35.46
2024-05-09T08:43:18.859Z,35.44
2024-05-09T08:44:18.697Z,35.43
2024-05-09T08:45:18.663Z,35.42
2024-05-09T08:46:19.063Z,35.40
2024-05-09T08:47:18.712Z,35.44
2024-05-09T08:48:18.957Z,35.44
2024-05-09T08:49:18.744Z,35.39
2024-05-09T08:50:28.912Z,35.41
2024-05-09T08:51:19.690Z,35.39
2024-05-09T08:52:18.829Z,35.45
2024-05-09T08:53:18.689Z,35.44
2024-05-09T08:54:18.685Z,35.41
2024-05-09T08:55:18.697Z,35.41
2024-05-09T08:56:18.686Z,35.44
2024-05-09T08:57:18.737Z,35.41
2024-05-09T08:58:18.744Z,35.40
2024-05-09T08:59:18.710Z,35.40
2024-05-09T09:00:29.245Z,35.36
2024-05-09T09:01:19.909Z,35.37
2024-05-09T09:02:19.215Z,35.39
2024-05-09T09:03:19.246Z,35.36
2024-05-09T09:04:18.878Z,35.36
2024-05-09T09:05:18.814Z,35.37
2024-05-09T09:06:18.741Z,35.31
2024-05-09T09:07:18.798Z,35.36
2024-05-09T09:08:18.708Z,35.35
2024-05-09T09:09:18.713Z,35.31
2024-05-09T09:10:28.938Z,35.36
2024-05-09T09:11:19.768Z,35.31
2024-05-09T09:12:18.712Z,35.31
2024-05-09T09:13:18.773Z,35.30
2024-05-09T09:14:18.707Z,35.31
2024-05-09T09:15:18.734Z,35.30
2024-05-09T09:16:18.971Z,35.33
2024-05-09T09:17:18.790Z,35.30
2024-05-09T09:18:19.377Z,35.31
2024-05-09T09:19:18.968Z,35.27
2024-05-09T09:20:25.964Z,35.27
2024-05-09T09:21:19.732Z,35.27
2024-05-09T09:22:18.774Z,35.24
2024-05-09T09:23:18.766Z,35.25
2024-05-09T09:24:18.746Z,35.29
2024-05-09T09:25:18.791Z,35.28
2024-05-09T09:26:18.737Z,35.27
2024-05-09T09:27:18.741Z,35.25
2024-05-09T09:28:18.791Z,35.30
2024-05-09T09:29:18.736Z,35.25
2024-05-09T09:30:31.657Z,35.24
2024-05-09T09:31:19.807Z,35.22
2024-05-09T09:32:18.926Z,35.22
2024-05-09T09:33:18.960Z,35.25
2024-05-09T09:34:19.034Z,35.24
2024-05-09T09:35:18.787Z,35.26
2024-05-09T09:36:18.788Z,35.28
2024-05-09T09:37:18.851Z,35.21
2024-05-09T09:38:18.758Z,35.25
2024-05-09T09:39:18.805Z,35.22
2024-05-09T09:40:22.219Z,35.23
2024-05-09T09:41:19.808Z,35.23
2024-05-09T09:42:18.759Z,35.18
2024-05-09T09:43:18.935Z,35.21
2024-05-09T09:44:18.790Z,35.19
2024-05-09T09:45:18.775Z,35.24
2024-05-09T09:46:18.855Z,35.19
2024-05-09T09:47:19.065Z,35.22
2024-05-09T09:48:18.899Z,35.23
2024-05-09T09:49:19.004Z,35.21
2024-05-09T09:50:27.287Z,35.25
2024-05-09T09:51:19.811Z,35.21
2024-05-09T09:52:18.995Z,35.24
2024-05-09T09:53:18.819Z,35.20
2024-05-09T09:54:18.824Z,35.21
2024-05-09T09:55:18.983Z,35.24
2024-05-09T09:56:18.850Z,35.21
2024-05-09T09:57:18.830Z,35.20
2024-05-09T09:58:18.947Z,35.21
2024-05-09T09:59:18.808Z,35.22
2024-05-09T10:00:24.539Z,35.19
2024-05-09T10:01:20.011Z,35.19
2024-05-09T10:02:19.086Z,35.24
2024-05-09T10:03:19.224Z,35.19
2024-05-09T10:04:19.131Z,35.14
2024-05-09T10:05:19.021Z,35.24
2024-05-09T10:06:18.929Z,35.20
2024-05-09T10:07:18.886Z,35.21
2024-05-09T10:08:18.861Z,35.17
2024-05-09T10:09:18.820Z,35.20
2024-05-09T10:10:26.904Z,35.21
2024-05-09T10:11:20.021Z,35.14
2024-05-09T10:12:18.872Z,35.19
2024-05-09T10:13:19.020Z,35.20
2024-05-09T10:14:18.844Z,35.17
2024-05-09T10:15:18.852Z,35.18
2024-05-09T10:16:19.016Z,35.17
2024-05-09T10:17:18.935Z,35.18
2024-05-09T10:18:19.060Z,35.16
2024-05-09T10:19:19.142Z,35.16
2024-05-09T10:20:24.670Z,35.18
2024-05-09T10:21:19.891Z,35.17
2024-05-09T10:22:18.915Z,35.19
2024-05-09T10:23:18.888Z,35.18
2024-05-09T10:24:18.845Z,35.18
2024-05-09T10:25:18.970Z,35.15
2024-05-09T10:26:18.873Z,35.19
2024-05-09T10:27:18.881Z,35.15
2024-05-09T10:28:18.968Z,35.13
2024-05-09T10:29:18.859Z,35.15
2024-05-09T10:30:26.084Z,35.13
2024-05-09T10:31:19.930Z,35.18
2024-05-09T10:32:19.090Z,35.18
2024-05-09T10:33:19.037Z,35.18
2024-05-09T10:34:19.215Z,35.18
2024-05-09T10:35:18.878Z,35.15
2024-05-09T10:36:18.910Z,35.16
2024-05-09T10:37:18.888Z,35.15
2024-05-09T10:38:18.890Z,35.14
2024-05-09T10:39:18.885Z,35.16
2024-05-09T10:40:26.066Z,35.16
2024-05-09T10:41:19.912Z,35.17
2024-05-09T10:42:18.923Z,35.14
2024-05-09T10:43:18.967Z,35.14
2024-05-09T10:44:18.919Z,35.15
2024-05-09T10:45:18.891Z,35.12
2024-05-09T10:46:19.288Z,35.12
2024-05-09T10:47:18.976Z,35.12
2024-05-09T10:48:19.042Z,35.18
2024-05-09T10:49:19.053Z,35.14
2024-05-09T10:50:25.667Z,35.15
2024-05-09T10:51:19.991Z,35.10
2024-05-09T10:52:19.032Z,35.15
2024-05-09T10:53:18.916Z,35.15
2024-05-09T10:54:18.898Z,35.14
2024-05-09T10:55:19.018Z,35.11
2024-05-09T10:56:18.937Z,35.11
2024-05-09T10:57:18.917Z,35.18
2024-05-09T10:58:19.046Z,35.12
2024-05-09T10:59:18.913Z,35.12
2024-05-09T11:00:27.386Z,35.14
2024-05-09T11:01:20.045Z,35.17
2024-05-09T11:02:19.033Z,35.11
2024-05-09T11:03:18.983Z,35.13
2024-05-09T11:04:19.091Z,35.12
2024-05-09T11:05:19.224Z,35.12
2024-05-09T11:06:18.952Z,35.15
2024-05-09T11:07:19.028Z,35.15
2024-05-09T11:08:18.955Z,35.12
2024-05-09T11:09:18.966Z,35.09
2024-05-09T11:10:27.243Z,35.13
2024-05-09T11:11:19.973Z,35.12
2024-05-09T11:12:20.627Z,35.14
2024-05-09T11:13:19.081Z,35.12
2024-05-09T11:14:18.982Z,35.13
2024-05-09T11:15:19.083Z,35.12
2024-05-09T11:16:19.397Z,35.09
2024-05-09T11:17:19.186Z,35.13
2024-05-09T11:18:21.002Z,35.10
2024-05-09T11:19:19.414Z,35.12
2024-05-09T11:20:26.776Z,35.10
2024-05-09T11:21:20.101Z,35.10
2024-05-09T11:22:19.235Z,35.09
2024-05-09T11:23:19.099Z,35.09
2024-05-09T11:24:19.102Z,35.06
2024-05-09T11:25:19.288Z,35.13
2024-05-09T11:26:19.110Z,35.08
2024-05-09T11:27:19.127Z,35.08
2024-05-09T11:28:19.238Z,35.13
2024-05-09T11:29:19.826Z,35.12
2024-05-09T11:31:19.458Z,35.06
2024-05-09T11:32:19.179Z,35.12
2024-05-09T11:33:19.302Z,35.08
2024-05-09T11:34:19.257Z,35.13
2024-05-09T11:35:19.137Z,35.09
2024-05-09T11:36:19.125Z,35.10
2024-05-09T11:37:19.310Z,35.06
2024-05-09T11:38:19.135Z,35.05
2024-05-09T11:39:19.126Z,35.08
2024-05-09T11:40:25.305Z,35.09
2024-05-09T11:41:20.146Z,35.08
2024-05-09T11:42:19.156Z,35.09
2024-05-09T11:43:19.324Z,35.05
2024-05-09T11:44:19.151Z,35.06
2024-05-09T11:45:19.136Z,35.08
2024-05-09T11:46:19.268Z,35.08
2024-05-09T11:47:19.193Z,35.13
2024-05-09T11:48:19.287Z,35.05
2024-05-09T11:49:19.269Z,35.12
2024-05-09T11:50:27.117Z,35.08
2024-05-09T11:51:20.156Z,35.12
2024-05-09T11:52:19.177Z,35.08
2024-05-09T11:53:19.170Z,35.11
2024-05-09T11:54:19.141Z,35.10
2024-05-09T11:55:19.327Z,35.07
2024-05-09T11:56:19.172Z,35.11
2024-05-09T11:57:19.174Z,35.08
2024-05-09T11:58:19.548Z,35.04
2024-05-09T11:59:19.181Z,35.08
2024-05-09T12:00:28.981Z,35.04
2024-05-09T12:01:21.031Z,35.07
2024-05-09T12:02:19.428Z,35.06
2024-05-09T12:03:19.453Z,35.09
2024-05-09T12:04:19.550Z,35.08
2024-05-09T12:05:19.716Z,35.11
2024-05-09T12:06:19.359Z,35.11
2024-05-09T12:07:19.441Z,35.08
2024-05-09T12:08:19.422Z,35.08
2024-05-09T12:09:19.500Z,35.08
2024-05-09T12:10:22.563Z,35.09
2024-05-09T12:11:20.568Z,35.09
2024-05-09T12:12:19.469Z,35.09
2024-05-09T12:13:19.590Z,35.10
2024-05-09T12:14:19.513Z,35.12
2024-05-09T12:15:19.518Z,35.14
2024-05-09T12:16:19.732Z,35.17
2024-05-09T12:17:19.568Z,35.14
2024-05-09T12:18:19.520Z,35.19
2024-05-09T12:19:19.520Z,35.17
2024-05-09T12:20:28.334Z,35.14
2024-05-09T12:21:20.489Z,35.19
2024-05-09T12:22:19.494Z,35.15
2024-05-09T12:23:19.489Z,35.14
2024-05-09T12:24:19.470Z,35.13
2024-05-09T12:25:19.545Z,35.13
2024-05-09T12:26:19.517Z,35.16
2024-05-09T12:27:19.502Z,35.17
2024-05-09T12:28:19.747Z,35.13
2024-05-09T12:29:19.538Z,35.14
2024-05-09T12:30:32.147Z,35.13
2024-05-09T12:31:20.551Z,35.15
2024-05-09T12:32:19.553Z,35.18
2024-05-09T12:33:19.788Z,35.19
2024-05-09T12:34:19.552Z,35.17
2024-05-09T12:35:19.519Z,35.19
2024-05-09T12:36:19.524Z,35.18
2024-05-09T12:37:19.568Z,35.17
2024-05-09T12:38:19.542Z,35.20
2024-05-09T12:39:19.548Z,35.23
2024-05-09T12:40:30.628Z,35.19
2024-05-09T12:41:20.543Z,35.23
2024-05-09T12:42:27.042Z,35.24
2024-05-09T12:43:20.675Z,35.20
2024-05-09T12:44:19.519Z,35.26
2024-05-09T12:45:19.532Z,35.21
2024-05-09T12:46:19.674Z,35.27
2024-05-09T12:47:19.586Z,35.23
2024-05-09T12:48:19.701Z,35.27
2024-05-09T12:49:20.256Z,35.25
2024-05-09T12:50:28.959Z,35.28
2024-05-09T12:51:20.554Z,35.27
2024-05-09T12:52:19.571Z,35.27
2024-05-09T12:53:19.581Z,35.25
2024-05-09T12:54:19.578Z,35.28
2024-05-09T12:55:19.625Z,35.25
2024-05-09T12:56:19.528Z,35.27
2024-05-09T12:57:19.549Z,35.25
2024-05-09T12:58:19.805Z,35.23
2024-05-09T12:59:19.579Z,35.27
2024-05-09T13:00:24.173Z,35.27